Galesburg, IL

7:02 AM CST on December 18, 2014 (GMT -0600)
Galesburg Municipal | Change Station
CLOSE
Current Station
Airport
Location: Galesburg,
Elevation: 764 ft
Nearby Weather Stations

Elev 764 ft 40.94 °N, 90.43 °W | Updated 7 minutes ago

Overcast
Overcast
20 °F
Feels Like 20 °F
N
0
Wind Variable Wind from North

Today
High -- | Low -- °F
--% Chance of Precip.
Yesterday
High -- | Low -- °F
Precip. -- in
7:21 AM 4:35 PM
Waning Crescent, 14% visible
Pressure 30.30 in
Visibility 10.0 miles
Clouds Scattered Clouds 10000 ft
Dew Point 18 °F
Humidity 93%
Rainfall 0.00 in
Snow Depth Not available.
UV 0 out of 12
Pollen .10 out of 12
Air Quality Not available.
Flu Activity Not available.
METAR KGBG 181255Z AUTO 00000KT 10SM SCT100 M07/M07 A3030 RMK AO2 T10661075

More Conditions Fewer Conditions

Pressure 30.30 in
Visibility 10.0 miles
Clouds Scattered Clouds 10000 ft
Dew Point 18 °F
Humidity 93%
Rainfall 0.00 in
Snow Depth Not available.
UV 0 out of 12
Pollen .10 out of 12
Air Quality Not available.
Flu Activity Not available.
METAR KGBG 181255Z AUTO 00000KT 10SM SCT100 M07/M07 A3030 RMK AO2 T10661075

More Conditions Fewer Conditions

10-Day Weather Forecast

Almanac

Astronomy

Dec. 18, 2014 Rise Set
Actual Time
Civil Twilight
Nautical Twilight
Astronomical Twilight
Moon
Length of Visible Light
Length of Day
Tomorrow will be .
, % of the Moon is Illuminated

Today's Extremes

State Highs State Lows

Community

WunderPhotos

Upload Photos

1,778,926 photos uploaded!

WunderBlogs® & News

Nearby

Air Quality

  Air Quality AQ Index Pollutant
Not available.

Snow Depth

Station Depth Elevation

Earthquake Activity

City Distance Mag. Time & Date
Minimum magnitude displayed is 2.5.

Coastal Water Temperatures

Place Temperature

Nearby Weather Stations